FACTFYWH

Guest
Details From FACT - Cape Town International
To FYWH - Windhoek Hosea Kutako Intl
Flight Number -
Tags Generated
Created
Modified
Stats Distance 693 nm / 1,283 km
Max Altitude 0 ft / 0 m
Waypoints 4
Social Downloads 14
Likes 0
Share VATSIM

Download

Looking for another format? Having issues loading an existing format? Contact us
Advertisement - Login to hide

Notes

Generated

Route

FACT KT WH FYWH

ID Type Via Altitude Latitude Longitude Leg Dist Tot Dist Heading (true) Name
O FACT APT - 0 ft / 0 m -33.96149˚ 18.59772˚ - 0 nm - -
KT NDB - 0 ft / 0 m -26.56618˚ 18.10310˚ 444 nm 444 nm 357° / 357° KEETMANSHOOP NDB
WH NDB - 0 ft / 0 m -22.48417˚ 17.47028˚ 247 nm 692 nm 352° / 352° WINDHOEK NDB
O FYWH APT - 0 ft / 0 m -22.47768˚ 17.46905˚ 0 nm 692 nm 350° / 350° Windhoek Hosea Kutako Intl

Altitude Profile

Advertisement - Login to hide

Weather


0- 5 10 15 20 25 30 35+ Temperature / ° C

Clouds and Precipitation
Forecast for 2017-12-13 00:00 UTC. Updated 34 minutes ago

Ground ~20,000 ft ~40,000 ft Winds

FACT

Details ICAO FACT (CPT)
Name Cape Town International
Region South Africa
Timezone Africa/Johannesburg (UTC+2.0)
Stats Elevation 151 ft / 46 m (AMSL)
Location -33.970501° 18.604405°
Runways 2
Magnetic Variation 25.343° W

METAR

FACT 121900Z 17015KT CAVOK 16/12 Q1016 NOSIG

Decode

TAF

Not found

Departure Runways

ID Width Length Bearing (true) Bearing (mag) Surface Threshold Offset Overrun Length
01 200 ft / 61 m 10,527 ft / 3,209 m 345.27° 10.61° Asphalt 0 ft / 0 m 195 ft / 59 m
16 151 ft / 46 m 5,586 ft / 1,703 m 135.35° 160.69° Asphalt 300 ft / 91 m 0 ft / 0 m
19 200 ft / 61 m 10,527 ft / 3,209 m 165.27° 190.61° Asphalt 0 ft / 0 m 195 ft / 59 m
34 151 ft / 46 m 5,586 ft / 1,703 m 315.35° 340.69° Asphalt 300 ft / 91 m 0 ft / 0 m

FYWH

Details ICAO FYWH
Name Windhoek Hosea Kutako Intl
Region Namibia
Timezone Africa/Windhoek (UTC+2.0)
Stats Elevation 5,640 ft / 1,719 m (AMSL)
Location -22.481811° 17.471569°
Runways 2
Magnetic Variation 12.006° W

METAR

FYWH 121900Z AUTO 28006KT //// // ////// 22/03 Q1019

Decode

TAF

Not found

Destination Runways

ID Width Length Bearing (true) Bearing (mag) Surface Threshold Offset Overrun Length
08 148 ft / 45 m 15,003 ft / 4,573 m 63.51° 75.52° Asphalt 0 ft / 0 m 345 ft / 105 m
16 98 ft / 30 m 5,010 ft / 1,527 m 141.33° 153.34° Asphalt 0 ft / 0 m 38 ft / 12 m
26 148 ft / 45 m 15,003 ft / 4,573 m 243.49° 255.50° Asphalt 0 ft / 0 m 84 ft / 26 m
34 98 ft / 30 m 5,010 ft / 1,527 m 321.32° 333.33° Asphalt 0 ft / 0 m 38 ft / 12 m

Approach Navaids

Runway Type Ident Frequency Range Bearing (true) Bearing (mag) Slope Elevation
26 Localiser WD 110.30 MHz 18 nm / 33 km 243.39° 255.40° - 5,640 ft / 1,719 m (AMSL)
26 Glidescope WD 110.30 MHz 10 nm / 19 km 243.50° 255.51° 3.00° 5,640 ft / 1,719 m (AMSL)

Popular Alternatives